sensor_id;sensor_type;location;lat;lon;timestamp;pressure;altitude;pressure_sealevel;temperature;humidity
5356;BME280;70449;52.486;13.386;2024-01-06T00:01:11;99873.88;;;6.43;100.00
5356;BME280;70449;52.486;13.386;2024-01-06T00:03:39;99873.41;;;6.07;100.00
5356;BME280;70449;52.486;13.386;2024-01-06T00:06:07;99889.81;;;5.91;100.00
5356;BME280;70449;52.486;13.386;2024-01-06T00:08:38;99886.06;;;6.51;100.00
5356;BME280;70449;52.486;13.386;2024-01-06T00:11:05;99876.72;;;6.86;100.00
5356;BME280;70449;52.486;13.386;2024-01-06T00:13:32;99870.75;;;5.97;100.00
5356;BME280;70449;52.486;13.386;2024-01-06T00:16:00;99889.53;;;6.32;100.00
5356;BME280;70449;52.486;13.386;2024-01-06T00:18:28;99889.53;;;6.32;100.00
5356;BME280;70449;52.486;13.386;2024-01-06T00:20:55;99881.38;;;5.93;100.00
5356;BME280;70449;52.486;13.386;2024-01-06T00:23:24;99888.75;;;6.06;100.00
5356;BME280;70449;52.486;13.386;2024-01-06T00:25:51;99888.75;;;6.27;100.00
5356;BME280;70449;52.486;13.386;2024-01-06T00:28:19;99881.47;;;6.75;100.00
5356;BME280;70449;52.486;13.386;2024-01-06T00:30:46;99879.44;;;6.33;100.00
5356;BME280;70449;52.486;13.386;2024-01-06T00:33:13;99878.94;;;5.91;100.00
5356;BME280;70449;52.486;13.386;2024-01-06T00:35:41;99879.72;;;6.31;100.00
5356;BME280;70449;52.486;13.386;2024-01-06T00:38:08;99879.72;;;6.31;100.00
5356;BME280;70449;52.486;13.386;2024-01-06T00:40:37;99875.59;;;6.34;100.00
5356;BME280;70449;52.486;13.386;2024-01-06T00:43:04;99888.63;;;6.66;100.00
5356;BME280;70449;52.486;13.386;2024-01-06T00:45:32;99890.97;;;6.20;100.00
5356;BME280;70449;52.486;13.386;2024-01-06T00:47:59;99892.94;;;5.69;100.00
5356;BME280;70449;52.486;13.386;2024-01-06T00:50:26;99888.53;;;6.18;100.00
5356;BME280;70449;52.486;13.386;2024-01-06T00:52:53;99900.16;;;5.95;100.00
5356;BME280;70449;52.486;13.386;2024-01-06T00:55:21;99902.06;;;5.89;100.00
5356;BME280;70449;52.486;13.386;2024-01-06T00:57:50;99905.19;;;5.67;100.00
5356;BME280;70449;52.486;13.386;2024-01-06T01:00:18;99910.94;;;6.05;100.00
5356;BME280;70449;52.486;13.386;2024-01-06T01:02:45;99898.34;;;6.48;100.00
5356;BME280;70449;52.486;13.386;2024-01-06T01:05:12;99905.06;;;6.61;100.00
5356;BME280;70449;52.486;13.386;2024-01-06T01:07:39;99910.31;;;6.18;100.00
5356;BME280;70449;52.486;13.386;2024-01-06T01:10:07;99910.31;;;6.18;100.00
5356;BME280;70449;52.486;13.386;2024-01-06T01:12:35;99911.28;;;6.32;100.00
5356;BME280;70449;52.486;13.386;2024-01-06T01:15:05;99926.16;;;6.11;100.00
5356;BME280;70449;52.486;13.386;2024-01-06T01:17:33;99926.16;;;6.11;100.00
5356;BME280;70449;52.486;13.386;2024-01-06T01:20:01;99924.88;;;5.98;100.00
5356;BME280;70449;52.486;13.386;2024-01-06T01:22:28;99924.88;;;5.98;100.00
5356;BME280;70449;52.486;13.386;2024-01-06T01:24:55;99935.72;;;5.59;100.00
5356;BME280;70449;52.486;13.386;2024-01-06T01:27:23;99931.16;;;5.94;100.00
5356;BME280;70449;52.486;13.386;2024-01-06T01:29:50;99931.16;;;5.94;100.00
5356;BME280;70449;52.486;13.386;2024-01-06T01:32:20;99992.41;;;6.35;100.00
5356;BME280;70449;52.486;13.386;2024-01-06T01:34:47;99924.91;;;5.93;100.00
5356;BME280;70449;52.486;13.386;2024-01-06T01:37:15;99927.22;;;6.15;100.00
5356;BME280;70449;52.486;13.386;2024-01-06T01:39:42;99930.59;;;6.65;100.00
5356;BME280;70449;52.486;13.386;2024-01-06T01:42:09;99921.13;;;7.35;100.00
5356;BME280;70449;52.486;13.386;2024-01-06T01:44:37;99930.22;;;6.13;100.00
5356;BME280;70449;52.486;13.386;2024-01-06T01:47:05;99927.59;;;6.67;100.00
5356;BME280;70449;52.486;13.386;2024-01-06T01:49:34;99933.16;;;6.22;100.00
5356;BME280;70449;52.486;13.386;2024-01-06T01:52:02;99934.06;;;5.58;100.00
5356;BME280;70449;52.486;13.386;2024-01-06T01:54:30;99929.28;;;5.94;100.00
5356;BME280;70449;52.486;13.386;2024-01-06T01:56:57;99929.28;;;5.94;100.00
5356;BME280;70449;52.486;13.386;2024-01-06T01:59:24;99924.84;;;6.67;100.00
5356;BME280;70449;52.486;13.386;2024-01-06T02:01:51;99929.81;;;6.30;100.00
5356;BME280;70449;52.486;13.386;2024-01-06T02:04:19;99946.53;;;6.82;100.00
5356;BME280;70449;52.486;13.386;2024-01-06T02:06:47;99939.53;;;7.00;100.00
5356;BME280;70449;52.486;13.386;2024-01-06T02:09:16;99938.31;;;6.24;100.00
5356;BME280;70449;52.486;13.386;2024-01-06T02:11:43;99947.19;;;6.34;100.00
5356;BME280;70449;52.486;13.386;2024-01-06T02:14:10;99937.19;;;6.59;100.00
5356;BME280;70449;52.486;13.386;2024-01-06T02:16:37;99945.81;;;6.95;100.00
5356;BME280;70449;52.486;13.386;2024-01-06T02:19:05;99949.31;;;7.49;100.00
5356;BME280;70449;52.486;13.386;2024-01-06T02:21:36;99950.38;;;7.05;100.00
5356;BME280;70449;52.486;13.386;2024-01-06T02:24:09;99946.63;;;6.38;100.00
5356;BME280;70449;52.486;13.386;2024-01-06T02:26:37;99946.63;;;6.38;100.00
5356;BME280;70449;52.486;13.386;2024-01-06T02:29:04;99955.09;;;6.36;100.00
5356;BME280;70449;52.486;13.386;2024-01-06T02:31:31;99951.13;;;7.35;100.00
5356;BME280;70449;52.486;13.386;2024-01-06T02:33:58;99955.66;;;6.67;100.00
5356;BME280;70449;52.486;13.386;2024-01-06T02:36:25;99952.25;;;6.51;100.00
5356;BME280;70449;52.486;13.386;2024-01-06T02:38:52;99959.53;;;5.77;100.00
5356;BME280;70449;52.486;13.386;2024-01-06T02:41:21;99959.53;;;5.77;100.00
5356;BME280;70449;52.486;13.386;2024-01-06T02:43:48;99969.13;;;6.14;100.00
5356;BME280;70449;52.486;13.386;2024-01-06T02:46:15;99965.41;;;6.73;100.00
5356;BME280;70449;52.486;13.386;2024-01-06T02:48:43;99971.75;;;6.29;100.00
5356;BME280;70449;52.486;13.386;2024-01-06T02:51:11;99974.00;;;6.17;100.00
5356;BME280;70449;52.486;13.386;2024-01-06T02:53:39;99973.28;;;6.75;100.00
5356;BME280;70449;52.486;13.386;2024-01-06T02:56:10;99976.25;;;6.49;100.00
5356;BME280;70449;52.486;13.386;2024-01-06T02:58:38;99968.13;;;6.73;100.00
5356;BME280;70449;52.486;13.386;2024-01-06T03:01:06;99973.59;;;6.00;100.00
5356;BME280;70449;52.486;13.386;2024-01-06T03:03:33;99970.63;;;6.35;100.00
5356;BME280;70449;52.486;13.386;2024-01-06T03:06:00;99982.78;;;6.09;100.00
5356;BME280;70449;52.486;13.386;2024-01-06T03:08:27;99968.50;;;6.91;100.00
5356;BME280;70449;52.486;13.386;2024-01-06T03:10:54;99967.41;;;7.16;100.00
5356;BME280;70449;52.486;13.386;2024-01-06T03:13:22;99979.97;;;6.58;100.00
5356;BME280;70449;52.486;13.386;2024-01-06T03:15:50;99994.53;;;6.44;100.00
5356;BME280;70449;52.486;13.386;2024-01-06T03:18:17;99979.97;;;6.58;100.00
5356;BME280;70449;52.486;13.386;2024-01-06T03:20:44;99984.69;;;5.49;100.00
5356;BME280;70449;52.486;13.386;2024-01-06T03:23:11;99979.31;;;5.93;100.00
5356;BME280;70449;52.486;13.386;2024-01-06T03:25:39;99999.38;;;5.45;100.00
5356;BME280;70449;52.486;13.386;2024-01-06T03:28:06;99988.25;;;6.04;100.00
5356;BME280;70449;52.486;13.386;2024-01-06T03:30:33;99988.66;;;6.26;100.00
5356;BME280;70449;52.486;13.386;2024-01-06T03:33:02;99986.84;;;5.57;100.00
5356;BME280;70449;52.486;13.386;2024-01-06T03:35:30;99988.72;;;6.16;100.00
5356;BME280;70449;52.486;13.386;2024-01-06T03:37:57;99998.84;;;6.50;100.00
5356;BME280;70449;52.486;13.386;2024-01-06T03:40:24;100002.22;;;6.31;100.00
5356;BME280;70449;52.486;13.386;2024-01-06T03:42:51;100009.53;;;5.86;100.00
5356;BME280;70449;52.486;13.386;2024-01-06T03:45:19;99999.47;;;6.36;100.00
5356;BME280;70449;52.486;13.386;2024-01-06T03:47:47;100013.50;;;5.50;100.00
5356;BME280;70449;52.486;13.386;2024-01-06T03:50:15;100006.28;;;5.84;100.00
5356;BME280;70449;52.486;13.386;2024-01-06T03:52:42;100015.44;;;6.09;100.00
5356;BME280;70449;52.486;13.386;2024-01-06T03:55:10;100013.75;;;6.18;100.00
5356;BME280;70449;52.486;13.386;2024-01-06T03:57:37;100018.03;;;5.69;100.00
5356;BME280;70449;52.486;13.386;2024-01-06T04:00:06;100006.09;;;6.59;100.00
5356;BME280;70449;52.486;13.386;2024-01-06T04:02:33;100012.34;;;5.71;100.00
5356;BME280;70449;52.486;13.386;2024-01-06T04:05:00;100016.00;;;6.45;100.00
5356;BME280;70449;52.486;13.386;2024-01-06T04:07:29;100015.72;;;6.81;100.00
5356;BME280;70449;52.486;13.386;2024-01-06T04:09:56;100017.03;;;6.89;100.00
5356;BME280;70449;52.486;13.386;2024-01-06T04:12:23;100026.22;;;6.29;100.00
5356;BME280;70449;52.486;13.386;2024-01-06T04:14:50;100025.19;;;6.15;100.00
5356;BME280;70449;52.486;13.386;2024-01-06T04:17:17;100026.81;;;6.16;100.00
5356;BME280;70449;52.486;13.386;2024-01-06T04:19:44;100032.00;;;5.48;100.00
5356;BME280;70449;52.486;13.386;2024-01-06T04:22:12;100037.66;;;6.26;100.00
5356;BME280;70449;52.486;13.386;2024-01-06T04:24:40;100039.72;;;6.00;100.00
5356;BME280;70449;52.486;13.386;2024-01-06T04:27:07;100040.66;;;5.60;100.00
5356;BME280;70449;52.486;13.386;2024-01-06T04:29:35;100044.19;;;5.65;100.00
5356;BME280;70449;52.486;13.386;2024-01-06T04:32:03;100044.19;;;5.65;100.00
5356;BME280;70449;52.486;13.386;2024-01-06T04:34:30;100043.25;;;6.01;100.00
5356;BME280;70449;52.486;13.386;2024-01-06T04:36:57;100046.13;;;5.50;100.00
5356;BME280;70449;52.486;13.386;2024-01-06T04:39:25;100049.03;;;6.33;100.00
5356;BME280;70449;52.486;13.386;2024-01-06T04:41:53;100040.19;;;6.86;100.00
5356;BME280;70449;52.486;13.386;2024-01-06T04:44:21;100043.91;;;6.66;100.00
5356;BME280;70449;52.486;13.386;2024-01-06T04:46:48;100048.00;;;6.98;100.00
5356;BME280;70449;52.486;13.386;2024-01-06T04:49:16;100049.88;;;7.02;100.00
5356;BME280;70449;52.486;13.386;2024-01-06T04:51:43;100054.91;;;6.51;100.00
5356;BME280;70449;52.486;13.386;2024-01-06T04:54:10;100051.91;;;6.08;100.00
5356;BME280;70449;52.486;13.386;2024-01-06T04:56:37;100062.25;;;6.55;100.00
5356;BME280;70449;52.486;13.386;2024-01-06T04:59:06;100062.25;;;6.55;100.00
5356;BME280;70449;52.486;13.386;2024-01-06T05:01:33;100078.75;;;6.30;100.00
5356;BME280;70449;52.486;13.386;2024-01-06T05:04:01;100071.00;;;6.03;100.00
5356;BME280;70449;52.486;13.386;2024-01-06T05:06:28;100075.22;;;6.24;100.00
5356;BME280;70449;52.486;13.386;2024-01-06T05:08:55;100069.41;;;6.80;100.00
5356;BME280;70449;52.486;13.386;2024-01-06T05:11:22;100064.97;;;6.90;100.00
5356;BME280;70449;52.486;13.386;2024-01-06T05:13:50;100069.34;;;6.02;100.00
5356;BME280;70449;52.486;13.386;2024-01-06T05:16:18;100068.41;;;6.66;100.00
5356;BME280;70449;52.486;13.386;2024-01-06T05:18:45;100068.47;;;6.95;100.00
5356;BME280;70449;52.486;13.386;2024-01-06T05:21:13;100077.91;;;7.08;100.00
5356;BME280;70449;52.486;13.386;2024-01-06T05:23:40;100082.09;;;6.61;100.00
5356;BME280;70449;52.486;13.386;2024-01-06T05:26:07;100082.09;;;6.61;100.00
5356;BME280;70449;52.486;13.386;2024-01-06T05:28:35;100085.31;;;6.63;100.00
5356;BME280;70449;52.486;13.386;2024-01-06T05:31:02;100084.19;;;6.69;100.00
5356;BME280;70449;52.486;13.386;2024-01-06T05:33:31;100074.66;;;6.32;100.00
5356;BME280;70449;52.486;13.386;2024-01-06T05:35:58;100074.66;;;6.32;100.00
5356;BME280;70449;52.486;13.386;2024-01-06T05:38:25;100081.00;;;6.57;100.00
5356;BME280;70449;52.486;13.386;2024-01-06T05:40:52;100080.38;;;6.70;100.00
5356;BME280;70449;52.486;13.386;2024-01-06T05:43:19;100088.75;;;7.13;100.00
5356;BME280;70449;52.486;13.386;2024-01-06T05:45:47;100093.00;;;6.61;100.00
5356;BME280;70449;52.486;13.386;2024-01-06T05:48:14;100104.38;;;6.68;100.00
5356;BME280;70449;52.486;13.386;2024-01-06T05:50:42;100109.56;;;6.15;100.00
5356;BME280;70449;52.486;13.386;2024-01-06T05:53:09;100113.50;;;5.73;100.00
5356;BME280;70449;52.486;13.386;2024-01-06T05:55:37;100113.50;;;5.73;100.00
5356;BME280;70449;52.486;13.386;2024-01-06T05:58:04;100117.81;;;5.84;100.00
5356;BME280;70449;52.486;13.386;2024-01-06T06:00:32;100114.59;;;5.72;100.00
5356;BME280;70449;52.486;13.386;2024-01-06T06:02:59;100127.50;;;6.21;100.00
5356;BME280;70449;52.486;13.386;2024-01-06T06:05:26;100115.59;;;6.62;100.00
5356;BME280;70449;52.486;13.386;2024-01-06T06:07:55;100131.00;;;6.76;100.00
5356;BME280;70449;52.486;13.386;2024-01-06T06:10:22;100132.97;;;6.11;100.00
5356;BME280;70449;52.486;13.386;2024-01-06T06:12:55;100134.06;;;6.15;100.00
5356;BME280;70449;52.486;13.386;2024-01-06T06:15:23;100139.91;;;6.43;100.00
5356;BME280;70449;52.486;13.386;2024-01-06T06:17:50;100142.44;;;6.78;100.00
5356;BME280;70449;52.486;13.386;2024-01-06T06:20:17;100152.56;;;6.13;100.00
5356;BME280;70449;52.486;13.386;2024-01-06T06:22:45;100153.66;;;6.67;100.00
5356;BME280;70449;52.486;13.386;2024-01-06T06:25:13;100163.72;;;6.17;100.00
5356;BME280;70449;52.486;13.386;2024-01-06T06:27:41;100161.34;;;5.95;100.00
5356;BME280;70449;52.486;13.386;2024-01-06T06:30:09;100178.66;;;6.24;100.00
5356;BME280;70449;52.486;13.386;2024-01-06T06:32:36;100181.16;;;6.21;100.00
5356;BME280;70449;52.486;13.386;2024-01-06T06:35:05;100182.66;;;6.97;100.00
5356;BME280;70449;52.486;13.386;2024-01-06T06:37:33;100178.47;;;6.70;100.00
5356;BME280;70449;52.486;13.386;2024-01-06T06:40:00;100185.78;;;6.10;100.00
5356;BME280;70449;52.486;13.386;2024-01-06T06:42:28;100188.44;;;6.35;100.00
5356;BME280;70449;52.486;13.386;2024-01-06T06:44:56;100179.53;;;6.69;100.00
5356;BME280;70449;52.486;13.386;2024-01-06T06:47:23;100185.28;;;6.68;100.00
5356;BME280;70449;52.486;13.386;2024-01-06T06:49:50;100198.56;;;6.79;100.00
5356;BME280;70449;52.486;13.386;2024-01-06T06:52:17;100205.94;;;6.74;100.00
5356;BME280;70449;52.486;13.386;2024-01-06T06:54:45;100207.63;;;5.74;100.00
5356;BME280;70449;52.486;13.386;2024-01-06T06:57:12;100211.31;;;6.29;100.00
5356;BME280;70449;52.486;13.386;2024-01-06T06:59:40;100225.44;;;6.42;100.00
5356;BME280;70449;52.486;13.386;2024-01-06T07:02:08;100223.88;;;6.20;100.00
5356;BME280;70449;52.486;13.386;2024-01-06T07:04:35;100226.06;;;6.18;100.00
5356;BME280;70449;52.486;13.386;2024-01-06T07:07:02;100234.44;;;6.92;100.00
5356;BME280;70449;52.486;13.386;2024-01-06T07:09:30;100237.13;;;6.42;100.00
5356;BME280;70449;52.486;13.386;2024-01-06T07:11:57;100245.69;;;5.69;100.00
5356;BME280;70449;52.486;13.386;2024-01-06T07:14:24;100254.66;;;5.85;100.00
5356;BME280;70449;52.486;13.386;2024-01-06T07:16:53;100252.13;;;6.34;100.00
5356;BME280;70449;52.486;13.386;2024-01-06T07:19:20;100252.13;;;6.34;100.00
5356;BME280;70449;52.486;13.386;2024-01-06T07:21:47;100254.22;;;6.63;100.00
5356;BME280;70449;52.486;13.386;2024-01-06T07:24:14;100260.84;;;6.36;100.00
5356;BME280;70449;52.486;13.386;2024-01-06T07:26:41;100253.31;;;5.98;100.00
5356;BME280;70449;52.486;13.386;2024-01-06T07:29:09;100256.31;;;5.96;100.00
5356;BME280;70449;52.486;13.386;2024-01-06T07:31:36;100265.28;;;5.91;100.00
5356;BME280;70449;52.486;13.386;2024-01-06T07:34:05;100268.75;;;6.28;100.00
5356;BME280;70449;52.486;13.386;2024-01-06T07:36:32;100273.25;;;6.68;100.00
5356;BME280;70449;52.486;13.386;2024-01-06T07:38:59;100279.44;;;6.04;100.00
5356;BME280;70449;52.486;13.386;2024-01-06T07:41:26;100291.38;;;6.18;100.00
5356;BME280;70449;52.486;13.386;2024-01-06T07:43:54;100289.47;;;5.57;100.00
5356;BME280;70449;52.486;13.386;2024-01-06T07:46:21;100284.31;;;6.07;100.00
5356;BME280;70449;52.486;13.386;2024-01-06T07:48:48;100292.50;;;5.71;100.00
5356;BME280;70449;52.486;13.386;2024-01-06T07:51:17;100293.50;;;6.47;100.00
5356;BME280;70449;52.486;13.386;2024-01-06T07:53:44;100301.66;;;5.29;100.00
5356;BME280;70449;52.486;13.386;2024-01-06T07:56:12;100305.00;;;5.82;100.00
5356;BME280;70449;52.486;13.386;2024-01-06T07:58:39;100313.69;;;5.59;100.00
5356;BME280;70449;52.486;13.386;2024-01-06T08:01:06;100303.94;;;6.09;100.00
5356;BME280;70449;52.486;13.386;2024-01-06T08:03:33;100320.78;;;5.85;100.00
5356;BME280;70449;52.486;13.386;2024-01-06T08:06:01;100315.84;;;6.33;100.00
5356;BME280;70449;52.486;13.386;2024-01-06T08:08:30;100324.00;;;5.52;100.00
5356;BME280;70449;52.486;13.386;2024-01-06T08:10:57;100325.69;;;6.04;100.00
5356;BME280;70449;52.486;13.386;2024-01-06T08:13:24;100337.03;;;5.39;100.00
5356;BME280;70449;52.486;13.386;2024-01-06T08:15:51;100338.75;;;5.76;100.00
5356;BME280;70449;52.486;13.386;2024-01-06T08:18:19;100343.06;;;6.44;100.00
5356;BME280;70449;52.486;13.386;2024-01-06T08:20:47;100344.19;;;6.07;100.00
5356;BME280;70449;52.486;13.386;2024-01-06T08:23:14;100342.25;;;5.72;100.00
5356;BME280;70449;52.486;13.386;2024-01-06T08:25:43;100346.69;;;4.99;100.00
5356;BME280;70449;52.486;13.386;2024-01-06T08:28:11;100346.69;;;4.99;100.00
5356;BME280;70449;52.486;13.386;2024-01-06T08:30:40;100347.97;;;5.65;100.00
5356;BME280;70449;52.486;13.386;2024-01-06T08:33:11;100358.03;;;6.51;100.00
5356;BME280;70449;52.486;13.386;2024-01-06T08:35:38;100357.78;;;6.32;100.00
5356;BME280;70449;52.486;13.386;2024-01-06T08:38:06;100359.66;;;5.65;100.00
5356;BME280;70449;52.486;13.386;2024-01-06T08:40:34;100363.47;;;5.59;100.00
5356;BME280;70449;52.486;13.386;2024-01-06T08:43:03;100365.97;;;6.07;100.00
5356;BME280;70449;52.486;13.386;2024-01-06T08:45:30;100371.16;;;6.29;100.00
5356;BME280;70449;52.486;13.386;2024-01-06T08:47:58;100377.94;;;6.11;100.00
5356;BME280;70449;52.486;13.386;2024-01-06T08:50:25;100378.47;;;6.28;100.00
5356;BME280;70449;52.486;13.386;2024-01-06T08:52:52;100389.38;;;6.44;100.00
5356;BME280;70449;52.486;13.386;2024-01-06T08:55:20;100380.66;;;5.96;100.00
5356;BME280;70449;52.486;13.386;2024-01-06T08:57:47;100386.63;;;6.33;100.00
5356;BME280;70449;52.486;13.386;2024-01-06T09:00:17;100391.22;;;5.72;100.00
5356;BME280;70449;52.486;13.386;2024-01-06T09:02:44;100395.84;;;5.81;100.00
5356;BME280;70449;52.486;13.386;2024-01-06T09:05:12;100404.44;;;5.27;100.00
5356;BME280;70449;52.486;13.386;2024-01-06T09:07:39;100411.72;;;6.20;100.00
5356;BME280;70449;52.486;13.386;2024-01-06T09:10:07;100412.78;;;6.19;100.00
5356;BME280;70449;52.486;13.386;2024-01-06T09:12:35;100418.31;;;5.41;100.00
5356;BME280;70449;52.486;13.386;2024-01-06T09:15:04;100418.66;;;5.55;100.00
5356;BME280;70449;52.486;13.386;2024-01-06T09:17:35;100426.88;;;5.80;100.00
5356;BME280;70449;52.486;13.386;2024-01-06T09:20:03;100427.84;;;5.43;100.00
5356;BME280;70449;52.486;13.386;2024-01-06T09:22:31;100437.94;;;5.48;100.00
5356;BME280;70449;52.486;13.386;2024-01-06T09:24:58;100433.22;;;5.18;100.00
5356;BME280;70449;52.486;13.386;2024-01-06T09:27:25;100429.53;;;5.55;100.00
5356;BME280;70449;52.486;13.386;2024-01-06T09:29:52;100436.28;;;5.42;100.00
5356;BME280;70449;52.486;13.386;2024-01-06T09:32:20;100441.03;;;5.93;100.00
5356;BME280;70449;52.486;13.386;2024-01-06T09:34:50;100454.56;;;5.62;100.00
5356;BME280;70449;52.486;13.386;2024-01-06T09:37:17;100454.56;;;5.62;100.00
5356;BME280;70449;52.486;13.386;2024-01-06T09:39:44;100455.97;;;5.75;100.00
5356;BME280;70449;52.486;13.386;2024-01-06T09:42:11;100454.16;;;6.01;100.00
5356;BME280;70449;52.486;13.386;2024-01-06T09:44:39;100454.16;;;6.01;100.00
5356;BME280;70449;52.486;13.386;2024-01-06T09:47:06;100452.53;;;6.20;100.00
5356;BME280;70449;52.486;13.386;2024-01-06T09:49:38;100458.72;;;5.90;100.00
5356;BME280;70449;52.486;13.386;2024-01-06T09:52:13;100458.72;;;5.90;100.00
5356;BME280;70449;52.486;13.386;2024-01-06T09:54:51;65098.22;;;-146.22;100.00
5356;BME280;70449;52.486;13.386;2024-01-06T09:57:20;65098.22;;;-146.22;100.00
5356;BME280;70449;52.486;13.386;2024-01-06T09:59:48;65098.22;;;-146.22;100.00
5356;BME280;70449;52.486;13.386;2024-01-06T10:02:17;65098.22;;;-146.22;100.00
5356;BME280;70449;52.486;13.386;2024-01-06T10:04:46;65098.22;;;-146.22;100.00
5356;BME280;70449;52.486;13.386;2024-01-06T10:07:15;65098.22;;;-146.22;100.00
5356;BME280;70449;52.486;13.386;2024-01-06T10:09:43;65098.22;;;-146.22;100.00
5356;BME280;70449;52.486;13.386;2024-01-06T10:12:10;65098.22;;;-146.22;100.00
5356;BME280;70449;52.486;13.386;2024-01-06T10:14:38;65098.22;;;-146.22;100.00
5356;BME280;70449;52.486;13.386;2024-01-06T10:17:06;65098.22;;;-146.22;100.00
5356;BME280;70449;52.486;13.386;2024-01-06T10:19:34;65098.22;;;-146.22;100.00
5356;BME280;70449;52.486;13.386;2024-01-06T10:22:02;65098.22;;;-146.22;100.00
5356;BME280;70449;52.486;13.386;2024-01-06T10:24:31;65098.22;;;-146.22;100.00
5356;BME280;70449;52.486;13.386;2024-01-06T10:26:58;65098.22;;;-146.22;100.00
5356;BME280;70449;52.486;13.386;2024-01-06T10:29:26;65098.22;;;-146.22;100.00
5356;BME280;70449;52.486;13.386;2024-01-06T10:31:54;65098.22;;;-146.22;100.00
5356;BME280;70449;52.486;13.386;2024-01-06T10:34:23;65098.22;;;-146.22;100.00
5356;BME280;70449;52.486;13.386;2024-01-06T10:36:51;65098.22;;;-146.22;100.00
5356;BME280;70449;52.486;13.386;2024-01-06T10:39:19;65098.22;;;-146.22;100.00
5356;BME280;70449;52.486;13.386;2024-01-06T10:41:49;65098.22;;;-146.22;100.00
5356;BME280;70449;52.486;13.386;2024-01-06T10:44:17;65098.22;;;-146.22;100.00
5356;BME280;70449;52.486;13.386;2024-01-06T10:46:50;65098.22;;;-146.22;100.00
5356;BME280;70449;52.486;13.386;2024-01-06T10:49:20;65098.22;;;-146.22;100.00
5356;BME280;70449;52.486;13.386;2024-01-06T10:51:49;65098.22;;;-146.22;100.00
5356;BME280;70449;52.486;13.386;2024-01-06T10:54:18;65098.22;;;-146.22;100.00
5356;BME280;70449;52.486;13.386;2024-01-06T10:56:49;65098.22;;;-146.22;100.00
5356;BME280;70449;52.486;13.386;2024-01-06T10:59:18;65098.22;;;-146.22;100.00
5356;BME280;70449;52.486;13.386;2024-01-06T11:01:50;65098.22;;;-146.22;100.00
5356;BME280;70449;52.486;13.386;2024-01-06T11:04:20;65098.22;;;-146.22;100.00
5356;BME280;70449;52.486;13.386;2024-01-06T11:06:49;65098.22;;;-146.22;100.00
5356;BME280;70449;52.486;13.386;2024-01-06T11:09:21;65098.22;;;-146.22;100.00
5356;BME280;70449;52.486;13.386;2024-01-06T11:11:51;65098.22;;;-146.22;100.00
5356;BME280;70449;52.486;13.386;2024-01-06T11:14:22;65098.22;;;-146.22;100.00
5356;BME280;70449;52.486;13.386;2024-01-06T11:16:51;65098.22;;;-146.22;100.00
5356;BME280;70449;52.486;13.386;2024-01-06T11:19:49;65098.22;;;-146.22;100.00
5356;BME280;70449;52.486;13.386;2024-01-06T11:22:26;65098.22;;;-146.22;100.00
5356;BME280;70449;52.486;13.386;2024-01-06T11:24:55;65098.22;;;-146.22;100.00
5356;BME280;70449;52.486;13.386;2024-01-06T11:27:27;65098.22;;;-146.22;100.00
5356;BME280;70449;52.486;13.386;2024-01-06T11:29:55;65098.22;;;-146.22;100.00
5356;BME280;70449;52.486;13.386;2024-01-06T11:32:28;65098.22;;;-146.22;100.00
5356;BME280;70449;52.486;13.386;2024-01-06T11:35:05;65098.22;;;-146.22;100.00
5356;BME280;70449;52.486;13.386;2024-01-06T11:37:51;65098.22;;;-146.22;100.00
5356;BME280;70449;52.486;13.386;2024-01-06T11:40:25;65098.22;;;-146.22;100.00
5356;BME280;70449;52.486;13.386;2024-01-06T11:43:01;65098.22;;;-146.22;100.00
5356;BME280;70449;52.486;13.386;2024-01-06T11:45:29;65098.22;;;-146.22;100.00
5356;BME280;70449;52.486;13.386;2024-01-06T11:47:58;65098.22;;;-146.22;100.00
5356;BME280;70449;52.486;13.386;2024-01-06T11:50:26;65098.22;;;-146.22;100.00
5356;BME280;70449;52.486;13.386;2024-01-06T11:52:54;65098.22;;;-146.22;100.00
5356;BME280;70449;52.486;13.386;2024-01-06T11:55:22;65098.22;;;-146.22;100.00
5356;BME280;70449;52.486;13.386;2024-01-06T11:57:49;65098.22;;;-146.22;100.00
5356;BME280;70449;52.486;13.386;2024-01-06T12:00:18;65098.22;;;-146.22;100.00
5356;BME280;70449;52.486;13.386;2024-01-06T12:02:46;65098.22;;;-146.22;100.00
5356;BME280;70449;52.486;13.386;2024-01-06T12:05:14;65098.22;;;-146.22;100.00
5356;BME280;70449;52.486;13.386;2024-01-06T12:07:42;65098.22;;;-146.22;100.00
5356;BME280;70449;52.486;13.386;2024-01-06T12:10:09;65098.22;;;-146.22;100.00
5356;BME280;70449;52.486;13.386;2024-01-06T12:12:37;65098.22;;;-146.22;100.00
5356;BME280;70449;52.486;13.386;2024-01-06T12:15:06;65098.22;;;-146.22;100.00
5356;BME280;70449;52.486;13.386;2024-01-06T12:17:39;65098.22;;;-146.22;100.00
5356;BME280;70449;52.486;13.386;2024-01-06T12:20:09;65098.22;;;-146.22;100.00
5356;BME280;70449;52.486;13.386;2024-01-06T12:22:36;65098.22;;;-146.22;100.00
5356;BME280;70449;52.486;13.386;2024-01-06T12:25:04;65098.22;;;-146.22;100.00
5356;BME280;70449;52.486;13.386;2024-01-06T12:27:32;65098.22;;;-146.22;100.00
5356;BME280;70449;52.486;13.386;2024-01-06T12:30:00;65098.22;;;-146.22;100.00
5356;BME280;70449;52.486;13.386;2024-01-06T12:32:28;65098.22;;;-146.22;100.00
5356;BME280;70449;52.486;13.386;2024-01-06T12:34:57;65098.22;;;-146.22;100.00
5356;BME280;70449;52.486;13.386;2024-01-06T12:37:25;65098.22;;;-146.22;100.00
5356;BME280;70449;52.486;13.386;2024-01-06T12:39:52;65098.22;;;-146.22;100.00
5356;BME280;70449;52.486;13.386;2024-01-06T12:42:19;65098.22;;;-146.22;100.00
5356;BME280;70449;52.486;13.386;2024-01-06T12:44:49;65098.22;;;-146.22;100.00
5356;BME280;70449;52.486;13.386;2024-01-06T12:47:17;65098.22;;;-146.22;100.00
5356;BME280;70449;52.486;13.386;2024-01-06T12:49:44;65098.22;;;-146.22;100.00
5356;BME280;70449;52.486;13.386;2024-01-06T12:52:13;65098.22;;;-146.22;100.00